Time;durP1;ratioP1;P1;durP2;ratioP2;P2;SDS_P1;SDS_P2;PMS_P1;PMS_P2;Temp;Humidity;BMP_temperature;BMP_pressure;BME280_temperature;BME280_humidity;BME280_pressure;Samples;Min_cycle;Max_cycle;Signal;HPM_P1;HPM_P2
2022/07/13 00:02:21;;;;;;;6.00;1.80;;;;;;;15.27;100.00;99783.48;105016;1271;60454;-76
2022/07/13 00:05:09;;;;;;;7.10;1.90;;;;;;;15.25;100.00;99785.80;104985;1271;73981;-75
2022/07/13 00:07:59;;;;;;;9.60;1.80;;;;;;;15.24;100.00;99786.86;105121;1271;68914;-76
2022/07/13 00:10:48;;;;;;;6.70;1.70;;;;;;;15.23;100.00;99786.25;105095;1271;70782;-75
2022/07/13 00:13:36;;;;;;;6.90;1.70;;;;;;;15.22;100.00;99783.70;105137;1271;60488;-76
2022/07/13 00:16:24;;;;;;;7.80;1.80;;;;;;;15.20;100.00;99779.56;104980;1271;60460;-75
2022/07/13 00:19:12;;;;;;;5.90;1.70;;;;;;;15.20;100.00;99780.66;104765;1273;73811;-75
2022/07/13 00:22:00;;;;;;;10.00;1.70;;;;;;;15.20;100.00;99785.89;105204;1271;67872;-75
2022/07/13 00:24:49;;;;;;;6.40;1.70;;;;;;;15.19;100.00;99787.86;104888;1271;74297;-75
2022/07/13 00:27:37;;;;;;;7.10;1.80;;;;;;;15.19;100.00;99789.65;104868;1271;60371;-75
2022/07/13 00:30:25;;;;;;;7.70;1.80;;;;;;;15.19;100.00;99783.55;104907;1271;60472;-75
2022/07/13 00:33:13;;;;;;;6.10;1.40;;;;;;;15.20;100.00;99780.47;105038;1271;74466;-74
2022/07/13 00:36:01;;;;;;;8.90;1.60;;;;;;;15.20;100.00;99784.39;105160;1271;68132;-75
2022/07/13 00:38:49;;;;;;;8.20;1.80;;;;;;;15.20;100.00;99784.36;105004;1271;74274;-75
2022/07/13 00:41:47;;;;;;;8.90;2.00;;;;;;;15.19;100.00;99779.33;105210;1271;60598;-74
2022/07/13 00:44:36;;;;;;;7.10;1.80;;;;;;;15.17;100.00;99780.95;104871;1271;60527;-74
2022/07/13 00:47:29;;;;;;;7.80;1.70;;;;;;;15.15;100.00;99774.84;104842;1271;74453;-75
2022/07/13 00:50:18;;;;;;;7.50;1.70;;;;;;;15.15;100.00;99772.60;104881;1271;69556;-73
2022/07/13 00:53:06;;;;;;;7.70;1.70;;;;;;;15.15;100.00;99768.44;104800;1274;73431;-74
2022/07/13 00:55:56;;;;;;;8.40;1.70;;;;;;;15.14;100.00;99765.61;104911;1271;60822;-74
2022/07/13 00:58:45;;;;;;;8.50;1.70;;;;;;;15.14;100.00;99767.84;105100;1271;61892;-73
2022/07/13 01:01:33;;;;;;;7.80;1.80;;;;;;;15.13;100.00;99770.78;105216;1271;74052;-74
2022/07/13 01:04:26;;;;;;;9.10;1.70;;;;;;;15.12;100.00;99765.40;104958;1271;67938;-75
2022/07/13 01:07:13;;;;;;;8.30;1.60;;;;;;;15.10;100.00;99762.47;104821;1271;73193;-76
2022/07/13 01:10:07;;;;;;;7.20;1.60;;;;;;;15.08;100.00;99762.50;104918;1271;61318;-73
2022/07/13 01:12:58;;;;;;;6.20;1.60;;;;;;;15.08;100.00;99762.77;105124;1272;60590;-75
2022/07/13 01:15:46;;;;;;;7.60;2.00;;;;;;;15.07;100.00;99758.19;105017;1271;74553;-75
2022/07/13 01:18:35;;;;;;;9.10;2.20;;;;;;;15.06;100.00;99755.77;104966;1271;67253;-73
2022/07/13 01:21:24;;;;;;;9.40;2.00;;;;;;;15.06;100.00;99758.11;104771;1271;74439;-72
2022/07/13 01:24:14;;;;;;;8.70;1.80;;;;;;;15.07;100.00;99754.05;105040;1271;60475;-73
2022/07/13 01:27:02;;;;;;;7.50;1.90;;;;;;;15.08;100.00;99758.24;104771;1273;60541;-72
2022/07/13 01:29:51;;;;;;;6.60;1.50;;;;;;;15.09;100.00;99759.64;104892;1271;75763;-72
2022/07/13 01:32:51;;;;;;;7.70;1.80;;;;;;;15.07;100.00;99754.98;105005;1272;68830;-76
2022/07/13 01:35:40;;;;;;;8.60;1.80;;;;;;;15.08;100.00;99753.11;105399;1271;73951;-73
2022/07/13 01:38:28;;;;;;;8.90;1.90;;;;;;;15.07;100.00;99757.35;105005;1271;60542;-74
2022/07/13 01:41:18;;;;;;;7.60;1.80;;;;;;;15.04;100.00;99753.46;104968;1271;60366;-73
2022/07/13 01:44:08;;;;;;;7.40;1.80;;;;;;;15.02;100.00;99751.75;105052;1271;74583;-73
2022/07/13 01:46:56;;;;;;;7.60;1.60;;;;;;;14.99;100.00;99763.82;104794;1272;68340;-73
2022/07/13 01:49:44;;;;;;;8.10;1.80;;;;;;;14.95;100.00;99752.58;105011;1271;74506;-73
2022/07/13 01:52:34;;;;;;;7.60;1.90;;;;;;;14.92;100.00;99747.90;105068;1271;61047;-73
2022/07/13 01:55:22;;;;;;;8.90;1.90;;;;;;;14.90;100.00;99754.02;104821;1273;60523;-74
2022/07/13 01:58:10;;;;;;;7.20;1.60;;;;;;;14.87;100.00;99744.27;105049;1271;73359;-74
2022/07/13 02:00:58;;;;;;;6.70;1.50;;;;;;;14.87;100.00;99742.58;104956;1272;68149;-75
2022/07/13 02:03:47;;;;;;;9.40;1.90;;;;;;;14.85;100.00;99745.79;104875;1272;73278;-74
2022/07/13 02:06:36;;;;;;;8.60;1.60;;;;;;;14.82;100.00;99740.16;104901;1272;60483;-75
2022/07/13 02:09:24;;;;;;;10.60;1.60;;;;;;;14.81;100.00;99747.88;104861;1272;61669;-73
2022/07/13 02:12:12;;;;;;;7.40;1.60;;;;;;;14.80;100.00;99743.88;105086;1271;74639;-73
2022/07/13 02:15:00;;;;;;;6.90;1.80;;;;;;;14.80;100.00;99743.17;104986;1271;68182;-75
2022/07/13 02:17:48;;;;;;;6.80;1.80;;;;;;;14.79;100.00;99737.88;105019;1271;72648;-74
2022/07/13 02:20:38;;;;;;;8.40;1.70;;;;;;;14.80;100.00;99738.74;105041;1274;60456;-76
2022/07/13 02:23:26;;;;;;;9.60;1.80;;;;;;;14.80;100.00;99736.94;104881;1271;61030;-78
2022/07/13 02:26:14;;;;;;;6.30;1.70;;;;;;;14.80;100.00;99731.39;105013;1271;74781;-75
2022/07/13 02:29:02;;;;;;;11.20;1.80;;;;;;;14.80;100.00;99726.77;104893;1271;68035;-75
2022/07/13 02:31:51;;;;;;;8.40;1.60;;;;;;;14.79;100.00;99724.89;104921;1271;73238;-75
2022/07/13 02:34:39;;;;;;;8.40;1.90;;;;;;;14.79;100.00;99717.59;104926;1272;60968;-73
2022/07/13 02:37:27;;;;;;;6.60;1.80;;;;;;;14.77;100.00;99715.66;105045;1271;60537;-73
2022/07/13 02:40:16;;;;;;;7.00;1.60;;;;;;;14.75;100.00;99722.04;104981;1271;73367;-74
2022/07/13 02:43:07;;;;;;;8.30;2.00;;;;;;;14.75;100.00;99718.16;105198;1271;67094;-72
2022/07/13 02:45:55;;;;;;;8.80;2.00;;;;;;;14.74;100.00;99713.27;104867;1271;73342;-74
2022/07/13 02:48:43;;;;;;;7.20;1.60;;;;;;;14.74;100.00;99714.52;104961;1271;60957;-75
2022/07/13 02:51:33;;;;;;;6.20;1.80;;;;;;;14.74;100.00;99721.16;105248;1271;60464;-75
2022/07/13 02:54:22;;;;;;;7.10;1.80;;;;;;;14.74;100.00;99725.73;105076;1272;74755;-74
2022/07/13 02:57:10;;;;;;;9.10;1.90;;;;;;;14.75;100.00;99716.88;104908;1271;68367;-75
2022/07/13 02:59:58;;;;;;;7.30;1.70;;;;;;;14.76;100.00;99712.88;104929;1271;73575;-75
2022/07/13 03:02:47;;;;;;;6.40;1.70;;;;;;;14.78;100.00;99703.92;104831;1271;60890;-76
2022/07/13 03:05:35;;;;;;;7.20;1.70;;;;;;;14.79;100.00;99710.79;104831;1271;62017;-75
2022/07/13 03:08:24;;;;;;;6.20;1.60;;;;;;;14.82;100.00;99714.30;105053;1272;75297;-72
2022/07/13 03:11:13;;;;;;;8.50;1.80;;;;;;;14.84;100.00;99705.67;104937;1271;69649;-76
2022/07/13 03:14:02;;;;;;;6.60;1.80;;;;;;;14.86;100.00;99704.75;104959;1272;72311;-74
2022/07/13 03:16:51;;;;;;;7.70;1.60;;;;;;;14.89;100.00;99702.80;105142;1271;60493;-74
2022/07/13 03:19:40;;;;;;;8.00;1.50;;;;;;;14.92;100.00;99707.52;104962;1272;60546;-74
2022/07/13 03:22:30;;;;;;;7.50;1.70;;;;;;;14.94;100.00;99709.08;104847;1274;74491;-69
2022/07/13 03:25:18;;;;;;;6.60;1.80;;;;;;;14.97;100.00;99709.32;104858;1274;69397;-72
2022/07/13 03:28:11;;;;;;;8.00;1.80;;;;;;;14.96;100.00;99704.65;104895;1273;74366;-71
2022/07/13 03:31:00;;;;;;;9.80;1.70;;;;;;;15.05;100.00;99708.38;105005;1272;60463;-74
2022/07/13 03:33:49;;;;;;;8.30;1.60;;;;;;;15.10;100.00;99709.25;104872;1272;60319;-74
2022/07/13 03:36:37;;;;;;;6.30;1.40;;;;;;;15.17;100.00;99706.10;105765;1271;75479;-75
2022/07/13 03:39:25;;;;;;;7.80;1.90;;;;;;;15.23;100.00;99702.36;104841;1271;69459;-73
2022/07/13 03:42:15;;;;;;;7.30;2.30;;;;;;;15.30;100.00;99708.27;104800;1271;74475;-75
2022/07/13 03:45:05;;;;;;;7.40;1.70;;;;;;;15.38;100.00;99713.60;105173;1271;60443;-74
2022/07/13 03:47:53;;;;;;;13.20;2.30;;;;;;;15.44;100.00;99714.73;105061;1272;60707;-76
2022/07/13 03:50:43;;;;;;;6.20;2.00;;;;;;;15.51;100.00;99705.08;104785;1274;73810;-75
2022/07/13 03:53:32;;;;;;;7.90;1.60;;;;;;;15.59;100.00;99706.03;104803;1273;66758;-74
2022/07/13 03:56:20;;;;;;;6.90;1.80;;;;;;;15.68;99.79;99710.09;104801;1271;73760;-73
2022/07/13 03:59:09;;;;;;;7.40;1.80;;;;;;;15.78;99.19;99710.48;104882;1273;60491;-73
2022/07/13 04:01:57;;;;;;;8.70;1.70;;;;;;;15.90;98.62;99719.10;104881;1271;60529;-73
2022/07/13 04:04:46;;;;;;;7.60;1.60;;;;;;;16.02;98.04;99726.92;104812;1271;73634;-73
2022/07/13 04:07:34;;;;;;;8.40;1.60;;;;;;;16.16;97.27;99728.16;104983;1273;68054;-75
2022/07/13 04:10:22;;;;;;;6.80;1.80;;;;;;;16.32;95.98;99736.09;104937;1271;72328;-73
2022/07/13 04:13:10;;;;;;;7.40;1.60;;;;;;;16.51;95.20;99736.26;104881;1272;60566;-73
2022/07/13 04:16:00;;;;;;;7.50;1.50;;;;;;;16.70;93.83;99740.48;104995;1272;60468;-74
2022/07/13 04:18:50;;;;;;;7.00;1.70;;;;;;;16.87;92.62;99732.36;104913;1274;75705;-74
2022/07/13 04:21:38;;;;;;;7.30;1.50;;;;;;;17.07;91.78;99736.67;105003;1271;67598;-74
2022/07/13 04:24:28;;;;;;;6.80;1.60;;;;;;;17.26;90.28;99738.45;105112;1271;74269;-74
2022/07/13 04:27:16;;;;;;;9.10;1.70;;;;;;;17.43;89.00;99735.60;105101;1271;60485;-74
2022/07/13 04:30:11;;;;;;;7.00;1.50;;;;;;;17.54;88.23;99730.36;105142;1271;61631;-74
2022/07/13 04:33:00;;;;;;;9.80;1.80;;;;;;;17.67;87.00;99725.80;105120;1271;74781;-76
2022/07/13 04:35:49;;;;;;;5.60;1.40;;;;;;;17.81;86.34;99728.98;105227;1271;68666;-78
2022/07/13 04:38:37;;;;;;;6.90;1.70;;;;;;;17.95;85.87;99731.55;104908;1273;72863;-74
2022/07/13 04:41:25;;;;;;;7.00;1.40;;;;;;;18.11;84.72;99729.14;105341;1273;60504;-73
2022/07/13 04:44:13;;;;;;;7.10;1.60;;;;;;;18.27;83.97;99720.33;105015;1273;60526;-75
2022/07/13 04:47:02;;;;;;;9.50;1.70;;;;;;;18.42;82.66;99719.66;104869;1271;73085;-75
2022/07/13 04:49:51;;;;;;;9.80;1.50;;;;;;;18.56;81.91;99718.02;104983;1271;67970;-74
2022/07/13 04:52:39;;;;;;;6.70;1.30;;;;;;;18.70;81.24;99720.35;105354;1273;73678;-75
2022/07/13 04:55:28;;;;;;;7.50;1.90;;;;;;;18.83;79.42;99722.13;104846;1272;60443;-75
2022/07/13 04:58:16;;;;;;;6.90;1.30;;;;;;;18.90;78.53;99716.60;105153;1271;60485;-74
2022/07/13 05:01:07;;;;;;;8.10;1.50;;;;;;;19.01;77.98;99722.30;105046;1271;74467;-75
2022/07/13 05:04:17;;;;;;;6.20;1.40;;;;;;;19.25;76.89;99717.02;105064;1272;69580;-78
2022/07/13 05:07:05;;;;;;;9.70;1.60;;;;;;;19.42;75.68;99722.70;105830;1272;73386;-77
2022/07/13 05:09:54;;;;;;;7.00;1.60;;;;;;;19.65;74.21;99725.23;105569;1271;60482;-77
2022/07/13 05:12:42;;;;;;;6.70;1.50;;;;;;;20.17;72.08;99729.60;105232;1271;60514;-77
2022/07/13 05:15:33;;;;;;;6.40;1.60;;;;;;;20.60;70.45;99733.64;105831;1271;73801;-77
2022/07/13 05:18:25;;;;;;;6.60;1.40;;;;;;;20.80;68.68;99731.16;105633;1271;68508;-77
2022/07/13 05:21:15;;;;;;;6.20;1.50;;;;;;;20.75;68.08;99725.25;105849;1271;72991;-75
2022/07/13 05:24:03;;;;;;;7.00;1.20;;;;;;;20.89;67.91;99730.44;106303;1271;289629;-77
2022/07/13 05:26:51;;;;;;;6.80;1.30;;;;;;;21.50;64.73;99721.23;106374;1271;60562;-75
2022/07/13 05:29:39;;;;;;;5.60;1.30;;;;;;;22.02;61.51;99723.63;105604;1271;73234;-76
2022/07/13 05:32:28;;;;;;;7.20;1.60;;;;;;;22.27;59.97;99723.27;105239;1271;68359;-78
2022/07/13 05:35:17;;;;;;;7.70;1.20;;;;;;;22.11;60.00;99724.50;105053;1271;74215;-76
2022/07/13 05:38:05;;;;;;;6.40;1.20;;;;;;;22.60;57.80;99720.38;105218;1271;60527;-73
2022/07/13 05:40:53;;;;;;;6.60;2.00;;;;;;;23.80;54.32;99717.23;105310;1271;60555;-78
2022/07/13 05:43:42;;;;;;;7.80;1.80;;;;;;;24.94;50.29;99712.54;105077;1271;74438;-79
2022/07/13 05:46:31;;;;;;;7.20;1.30;;;;;;;26.05;48.12;99714.92;105147;1272;68622;-79
2022/07/13 05:49:19;;;;;;;5.50;1.00;;;;;;;27.13;45.03;99711.23;105099;1272;72606;-80
2022/07/13 05:52:08;;;;;;;5.80;1.10;;;;;;;27.95;41.81;99700.75;105307;1271;60585;-79
2022/07/13 05:54:56;;;;;;;4.80;0.90;;;;;;;28.79;40.94;99702.69;105163;1271;61306;-77
2022/07/13 05:57:51;;;;;;;5.40;1.00;;;;;;;29.51;38.35;99700.34;105193;1271;75367;-76
2022/07/13 06:00:39;;;;;;;4.80;1.10;;;;;;;30.03;37.35;99693.54;105197;1271;68522;-78
2022/07/13 06:03:27;;;;;;;5.70;1.10;;;;;;;30.49;36.04;99695.73;105079;1271;72840;-76
2022/07/13 06:06:15;;;;;;;5.70;0.90;;;;;;;31.23;35.11;99694.08;105080;1271;60998;-76
2022/07/13 06:09:04;;;;;;;6.00;1.00;;;;;;;31.81;33.77;99690.17;105177;1271;60600;-79
2022/07/13 06:11:52;;;;;;;4.80;0.80;;;;;;;32.23;32.67;99684.08;105098;1270;73781;-77
2022/07/13 06:14:40;;;;;;;5.50;0.80;;;;;;;32.82;32.11;99682.88;105091;1271;67990;-77
2022/07/13 06:17:29;;;;;;;5.00;0.90;;;;;;;33.26;30.78;99685.09;105180;1271;74013;-78
2022/07/13 06:20:17;;;;;;;5.40;1.20;;;;;;;33.78;30.19;99685.93;105272;1271;60489;-79
2022/07/13 06:23:10;;;;;;;5.20;0.90;;;;;;;33.94;29.02;99699.27;105137;1271;60553;-79
2022/07/13 06:25:59;;;;;;;5.80;0.80;;;;;;;34.12;29.13;99693.10;105454;1271;72498;-78
2022/07/13 06:28:47;;;;;;;5.60;0.90;;;;;;;34.12;28.83;99694.92;105240;1271;68495;-78
2022/07/13 06:31:42;;;;;;;7.70;1.20;;;;;;;34.03;29.12;99701.98;105196;1271;73659;-77
2022/07/13 06:34:37;;;;;;;5.20;0.80;;;;;;;34.07;28.93;99705.61;106504;1271;60472;-79
2022/07/13 06:37:27;;;;;;;5.00;0.80;;;;;;;34.22;28.71;99709.94;105274;1271;60730;-77
2022/07/13 06:40:33;;;;;;;6.00;1.00;;;;;;;34.21;28.83;99708.08;105365;1271;74900;-79
2022/07/13 06:43:22;;;;;;;5.20;0.90;;;;;;;34.60;29.02;99710.58;105119;1271;66521;-80
2022/07/13 06:46:10;;;;;;;6.90;1.10;;;;;;;34.71;28.38;99714.91;105047;1271;70707;-77
2022/07/13 06:48:57;;;;;;;5.30;1.80;;;;;;;35.01;28.21;99719.17;105195;1271;60494;-78
2022/07/13 06:51:45;;;;;;;4.80;0.90;;;;;;;35.14;27.59;99723.80;105258;1271;60026;-79
2022/07/13 06:54:36;;;;;;;4.70;0.80;;;;;;;35.19;27.95;99721.27;105135;1271;74054;-78
2022/07/13 06:57:24;;;;;;;5.80;1.00;;;;;;;35.07;27.72;99720.44;105697;1271;69338;-77
2022/07/13 07:00:13;;;;;;;7.00;0.90;;;;;;;34.95;27.69;99725.48;106166;1271;72872;-77
2022/07/13 07:03:01;;;;;;;6.40;1.10;;;;;;;34.82;27.90;99724.36;105381;1271;60591;-78
2022/07/13 07:05:51;;;;;;;5.90;0.90;;;;;;;35.21;28.47;99720.80;105933;1271;60640;-78
2022/07/13 07:08:40;;;;;;;5.00;0.80;;;;;;;35.87;27.01;99716.26;105531;1271;72630;-77
2022/07/13 07:11:28;;;;;;;4.70;1.00;;;;;;;36.33;25.64;99716.16;105844;1271;67172;-77
2022/07/13 07:14:16;;;;;;;4.80;0.90;;;;;;;36.59;24.65;99714.71;105545;1271;71716;-78
2022/07/13 07:17:04;;;;;;;3.10;0.50;;;;;;;36.78;24.41;99710.36;105624;1271;60703;-78
2022/07/13 07:20:00;;;;;;;4.90;1.30;;;;;;;36.97;24.07;99706.34;104973;1271;60508;-77
2022/07/13 07:22:48;;;;;;;4.70;0.70;;;;;;;37.40;23.41;99702.73;105396;1271;75533;-75
2022/07/13 07:25:36;;;;;;;5.40;0.80;;;;;;;37.78;22.86;99699.27;105127;1271;67872;-77
2022/07/13 07:28:24;;;;;;;4.60;0.50;;;;;;;37.80;21.90;99702.15;105122;1271;71306;-77
2022/07/13 07:31:12;;;;;;;3.50;0.60;;;;;;;37.60;21.85;99703.39;105098;1271;60649;-76
2022/07/13 07:34:00;;;;;;;6.20;1.10;;;;;;;37.97;21.73;99707.89;105043;1271;60640;-75
2022/07/13 07:36:48;;;;;;;4.60;0.80;;;;;;;37.51;22.28;99706.17;105355;1271;75105;-76
2022/07/13 07:39:37;;;;;;;5.00;0.60;;;;;;;36.65;22.98;99705.46;105554;1271;68090;-75
2022/07/13 07:42:24;;;;;;;5.40;0.60;;;;;;;36.38;23.86;99710.22;105754;1271;73041;-76
2022/07/13 07:45:12;;;;;;;4.10;0.60;;;;;;;36.61;24.48;99697.38;105097;1271;60440;-70
2022/07/13 07:48:00;;;;;;;3.90;0.70;;;;;;;36.83;24.57;99686.73;105068;1271;60466;-72
2022/07/13 07:50:48;;;;;;;5.40;0.90;;;;;;;37.36;24.10;99692.16;105194;1271;74380;-75
2022/07/13 07:53:36;;;;;;;5.20;0.70;;;;;;;37.48;23.34;99693.02;105120;1271;67785;-74
2022/07/13 07:56:25;;;;;;;6.30;0.80;;;;;;;36.61;24.68;99693.63;105066;1271;74466;-74
2022/07/13 07:59:14;;;;;;;5.50;0.60;;;;;;;35.81;25.95;99704.44;105101;1271;60492;-74
2022/07/13 08:02:02;;;;;;;5.10;0.50;;;;;;;35.07;26.80;99702.85;105143;1271;62000;-76
2022/07/13 08:04:51;;;;;;;5.80;0.80;;;;;;;34.54;27.15;99699.98;105214;1271;72768;-76
2022/07/13 08:07:44;;;;;;;6.90;0.80;;;;;;;33.84;28.00;99694.62;105112;1271;68380;-73
2022/07/13 08:10:35;;;;;;;3.70;0.60;;;;;;;33.18;29.43;99696.34;104953;1271;73610;-74
2022/07/13 08:13:23;;;;;;;3.40;0.70;;;;;;;32.73;30.47;99694.95;104967;1271;60495;-74
2022/07/13 08:16:11;;;;;;;6.10;0.80;;;;;;;32.04;31.21;99697.29;105475;1271;60348;-74
2022/07/13 08:18:58;;;;;;;4.90;0.70;;;;;;;31.24;32.53;99701.33;105201;1271;72745;-74
2022/07/13 08:22:06;;;;;;;4.20;0.80;;;;;;;30.33;33.88;99704.67;105035;1268;69690;-73
2022/07/13 08:24:55;;;;;;;4.30;0.80;;;;;;;29.58;35.42;99704.98;104910;1271;72977;-73
2022/07/13 08:27:44;;;;;;;6.60;0.70;;;;;;;28.67;37.07;99706.31;104924;1271;60564;-73
2022/07/13 08:30:36;;;;;;;5.10;0.90;;;;;;;27.90;38.83;99708.89;105029;1271;60485;-71
2022/07/13 08:39:38;;;;;;;4.70;1.00;;;;;;;26.32;41.51;99714.20;105231;1271;71611;-73
2022/07/13 08:42:25;;;;;;;4.40;0.80;;;;;;;26.12;42.26;99707.45;105064;1271;60477;-75
2022/07/13 08:45:14;;;;;;;4.40;0.80;;;;;;;26.05;43.24;99716.13;104957;1271;60459;-73
2022/07/13 08:48:20;;;;;;;5.30;1.00;;;;;;;25.75;44.44;99716.80;105080;1271;72430;-75
2022/07/13 08:51:09;;;;;;;5.00;0.80;;;;;;;25.65;45.04;99716.13;105095;1271;68144;-75
2022/07/13 08:53:57;;;;;;;4.90;0.90;;;;;;;25.59;45.60;99714.26;105162;1271;72742;-75
2022/07/13 08:56:48;;;;;;;6.20;1.00;;;;;;;25.43;45.93;99708.78;105252;1272;60351;-75
2022/07/13 08:59:37;;;;;;;5.30;1.10;;;;;;;25.30;46.49;99713.83;105195;1271;61983;-75
2022/07/13 09:02:25;;;;;;;4.50;0.90;;;;;;;25.12;47.27;99714.24;104992;1271;75215;-75
2022/07/13 09:05:13;;;;;;;4.80;1.10;;;;;;;24.96;47.85;99726.90;105048;1271;69817;-76
2022/07/13 09:08:07;;;;;;;7.50;1.30;;;;;;;24.71;48.01;99718.68;105073;1271;73094;-77
2022/07/13 09:10:57;;;;;;;4.10;1.00;;;;;;;24.40;47.80;99711.23;105022;1271;60462;-77
2022/07/13 09:13:45;;;;;;;5.50;1.10;;;;;;;24.11;48.47;99703.88;105050;1271;60357;-76
2022/07/13 09:16:33;;;;;;;6.00;1.30;;;;;;;23.85;49.14;99705.32;105401;1271;75511;-78
2022/07/13 09:19:25;;;;;;;4.90;1.10;;;;;;;23.67;49.63;99708.25;105634;1271;67828;-77
2022/07/13 09:22:13;;;;;;;7.00;1.10;;;;;;;23.56;50.59;99705.20;105207;1274;74685;-76
2022/07/13 09:25:02;;;;;;;5.80;1.20;;;;;;;23.49;51.09;99703.09;105107;1271;60545;-77
2022/07/13 09:27:50;;;;;;;5.30;1.30;;;;;;;23.46;51.10;99699.39;105274;1271;60868;-76
2022/07/13 09:30:45;;;;;;;7.30;1.50;;;;;;;23.38;51.14;99704.77;105272;1271;75457;-76
2022/07/13 09:33:38;;;;;;;5.10;1.50;;;;;;;23.29;51.15;99700.21;105026;1272;66479;-76
2022/07/13 09:36:26;;;;;;;4.90;1.10;;;;;;;23.30;51.43;99701.36;104975;1272;72608;-76
2022/07/13 09:39:20;;;;;;;5.40;1.40;;;;;;;23.52;50.96;99700.48;105123;1271;60580;-75
2022/07/13 09:42:08;;;;;;;5.60;1.20;;;;;;;24.05;50.11;99694.95;104943;1271;60521;-78
2022/07/13 09:48:14;;;;;;;5.60;1.30;;;;;;;25.74;46.94;99691.70;105349;1271;67023;-77
2022/07/13 09:51:02;;;;;;;7.30;1.10;;;;;;;26.66;45.02;99690.70;105476;1271;72003;-77
2022/07/13 09:53:54;;;;;;;4.40;1.30;;;;;;;28.13;41.97;99679.70;105118;1271;60554;-77
2022/07/13 09:56:49;;;;;;;6.20;1.40;;;;;;;29.76;38.30;99680.09;105072;1271;60456;-77
2022/07/13 09:59:43;;;;;;;6.60;1.50;;;;;;;31.08;34.91;99684.63;105034;1272;75373;-76
2022/07/13 10:02:32;;;;;;;5.50;1.40;;;;;;;31.71;33.59;99684.39;105335;1271;67999;-76
2022/07/13 10:05:20;;;;;;;5.90;1.50;;;;;;;32.00;32.74;99673.61;105212;1271;71638;-77
2022/07/13 10:08:08;;;;;;;6.40;1.20;;;;;;;32.44;32.57;99669.35;105301;1271;60757;-75
2022/07/13 10:10:56;;;;;;;5.80;1.20;;;;;;;32.79;31.56;99667.02;105138;1272;62031;-77
2022/07/13 10:13:45;;;;;;;6.60;1.20;;;;;;;33.37;30.23;99661.03;105667;1271;75023;-77
2022/07/13 10:16:33;;;;;;;5.00;1.00;;;;;;;33.41;29.92;99659.31;105198;1271;66903;-78
2022/07/13 10:19:21;;;;;;;4.80;1.20;;;;;;;33.63;29.66;99665.29;106271;1271;71828;-75
2022/07/13 10:22:17;;;;;;;5.00;1.00;;;;;;;33.71;30.50;99662.71;105247;1271;60562;-75
2022/07/13 10:25:06;;;;;;;6.20;1.10;;;;;;;33.35;29.96;99657.92;105133;1271;60514;-75
2022/07/13 10:28:04;;;;;;;5.60;1.10;;;;;;;32.93;30.41;99660.56;105252;1271;75549;-74
2022/07/13 10:30:52;;;;;;;4.90;1.20;;;;;;;33.11;30.19;99648.73;105007;1271;66912;-75
2022/07/13 10:33:43;;;;;;;5.60;1.20;;;;;;;33.25;30.53;99648.05;105345;1271;73680;-74
2022/07/13 10:36:54;;;;;;;7.30;1.00;;;;;;;33.75;30.10;99640.95;104925;1271;60586;-76
2022/07/13 10:40:13;;;;;;;5.80;1.10;;;;;;;34.87;28.33;99640.10;104912;1271;61081;-75
2022/07/13 10:43:02;;;;;;;5.40;1.40;;;;;;;33.84;28.65;99651.06;104995;1271;73497;-75
2022/07/13 10:45:53;;;;;;;4.80;1.40;;;;;;;32.47;30.90;99651.40;105007;1271;68942;-74
2022/07/13 10:49:02;;;;;;;5.70;1.60;;;;;;;31.30;33.13;99658.83;105046;1271;72836;-74
2022/07/13 10:51:50;;;;;;;8.50;1.90;;;;;;;30.48;34.63;99651.53;105066;1271;60859;-75
2022/07/13 10:55:06;;;;;;;7.00;1.70;;;;;;;29.62;36.48;99651.26;105245;1271;60433;-74
2022/07/13 10:57:54;;;;;;;8.10;1.50;;;;;;;28.95;37.81;99655.09;105266;1271;72860;-74
2022/07/13 11:00:43;;;;;;;6.10;1.50;;;;;;;28.30;38.88;99653.67;104938;1271;67435;-76
2022/07/13 11:03:43;;;;;;;6.30;1.60;;;;;;;27.64;39.38;99653.91;105134;1271;71414;-76
2022/07/13 11:06:32;;;;;;;6.10;1.70;;;;;;;27.00;40.24;99653.33;104943;1271;60585;-75
2022/07/13 11:09:21;;;;;;;7.30;1.60;;;;;;;26.65;41.25;99654.42;105011;1271;60495;-77
2022/07/13 11:12:23;;;;;;;6.00;1.60;;;;;;;26.38;42.47;99654.84;104995;1271;74154;-75
2022/07/13 11:15:18;;;;;;;6.10;1.70;;;;;;;26.38;43.39;99654.84;105032;1271;68034;-75
2022/07/13 11:18:22;;;;;;;6.60;1.90;;;;;;;26.46;43.37;99648.42;105308;1271;72622;-76
2022/07/13 11:21:18;;;;;;;8.10;1.70;;;;;;;26.79;43.44;99650.00;105399;1271;60462;-75
2022/07/13 11:27:36;;;;;;;5.60;1.50;;;;;;;28.11;40.52;99635.11;105175;1271;74108;-72
2022/07/13 11:30:29;;;;;;;6.00;1.70;;;;;;;28.73;39.45;99632.39;104900;1271;66748;-74
2022/07/13 11:33:19;;;;;;;6.70;1.70;;;;;;;29.02;38.26;99636.28;105292;1271;72919;-77
2022/07/13 11:36:08;;;;;;;7.00;1.70;;;;;;;29.16;38.33;99637.30;105081;1271;60491;-75
2022/07/13 11:39:22;;;;;;;7.00;1.90;;;;;;;29.34;38.14;99636.11;104921;1271;60469;-75
2022/07/13 11:42:10;;;;;;;7.50;1.70;;;;;;;29.47;37.43;99636.44;105221;1271;73768;-75
2022/07/13 11:44:58;;;;;;;5.70;1.60;;;;;;;29.60;36.78;99637.46;105130;1271;69662;-76
2022/07/13 11:47:46;;;;;;;6.70;1.70;;;;;;;29.63;36.82;99631.80;105173;1271;74623;-74
2022/07/13 11:50:49;;;;;;;6.10;1.40;;;;;;;29.25;37.31;99634.04;104923;1271;60562;-75
2022/07/13 11:53:37;;;;;;;6.80;1.80;;;;;;;28.87;38.35;99632.08;105044;1271;60434;-75
2022/07/13 11:56:25;;;;;;;6.10;1.50;;;;;;;28.51;39.75;99631.81;105060;1271;73843;-77
2022/07/13 11:59:16;;;;;;;6.60;1.60;;;;;;;28.04;39.72;99628.13;105154;1271;67848;-76
2022/07/13 12:02:09;;;;;;;5.50;1.40;;;;;;;27.78;40.11;99622.61;104978;1271;72949;-79
2022/07/13 12:04:57;;;;;;;6.00;1.60;;;;;;;27.62;41.28;99623.56;105235;1271;60391;-79
2022/07/13 12:07:59;;;;;;;7.00;1.90;;;;;;;27.52;42.04;99623.41;105042;1271;60488;-76
2022/07/13 12:10:48;;;;;;;10.70;1.60;;;;;;;27.44;42.32;99614.17;105069;1271;72691;-77
2022/07/13 12:13:39;;;;;;;9.40;1.50;;;;;;;27.28;41.68;99622.61;105126;1271;66886;-76
2022/07/13 12:16:27;;;;;;;6.50;1.70;;;;;;;27.02;42.07;99616.13;105404;1271;72132;-77
2022/07/13 12:19:18;;;;;;;5.10;1.40;;;;;;;26.91;42.82;99621.29;105079;1271;60472;-77
2022/07/13 12:22:07;;;;;;;6.10;1.90;;;;;;;26.90;42.95;99618.92;104946;1272;60838;-77
2022/07/13 12:24:55;;;;;;;5.30;1.60;;;;;;;26.99;43.20;99620.27;105184;1271;75308;-73
2022/07/13 12:27:43;;;;;;;7.80;1.70;;;;;;;26.84;40.63;99632.41;105078;1271;68053;-77
2022/07/13 12:30:33;;;;;;;5.90;1.70;;;;;;;26.54;40.86;99621.10;105274;1271;72393;-76
2022/07/13 12:33:23;;;;;;;6.50;1.50;;;;;;;26.42;41.62;99614.14;105188;1271;60899;-78
2022/07/13 12:36:15;;;;;;;6.50;1.60;;;;;;;26.33;41.89;99612.79;105226;1271;62181;-79
2022/07/13 12:39:04;;;;;;;6.10;1.90;;;;;;;26.14;42.87;99610.98;105413;1271;74713;-78
2022/07/13 12:41:56;;;;;;;5.70;1.50;;;;;;;26.09;43.54;99607.48;105301;1271;66737;-78
2022/07/13 12:44:44;;;;;;;6.90;1.60;;;;;;;26.10;44.05;99603.11;105080;1271;72988;-79
2022/07/13 12:47:33;;;;;;;7.50;1.90;;;;;;;26.22;44.09;99601.59;105340;1271;60479;-79
2022/07/13 12:50:32;;;;;;;6.00;2.00;;;;;;;26.18;44.06;99604.05;105238;1271;62043;-77
2022/07/13 12:53:21;;;;;;;6.40;1.90;;;;;;;26.22;44.12;99601.67;105027;1271;75503;-76
2022/07/13 12:56:09;;;;;;;6.10;2.10;;;;;;;26.17;44.45;99599.51;105068;1271;66806;-77
2022/07/13 12:59:04;;;;;;;5.60;1.70;;;;;;;26.10;44.48;99599.39;105025;1271;72833;-78
2022/07/13 13:01:52;;;;;;;6.80;1.70;;;;;;;26.14;44.64;99596.64;105134;1271;61159;-76
2022/07/13 13:04:40;;;;;;;5.20;1.60;;;;;;;26.24;43.90;99595.59;105126;1271;62258;-78
2022/07/13 13:07:29;;;;;;;6.20;1.80;;;;;;;26.28;44.68;99593.52;105116;1271;74044;-78
2022/07/13 13:10:17;;;;;;;7.00;1.90;;;;;;;26.38;44.57;99591.02;105153;1271;68085;-78
2022/07/13 13:13:06;;;;;;;5.00;1.50;;;;;;;26.42;41.14;99588.02;105467;1271;72897;-78
2022/07/13 13:15:54;;;;;;;5.00;1.30;;;;;;;26.50;38.40;99592.79;105548;1271;60366;-80
2022/07/13 13:18:42;;;;;;;5.50;1.70;;;;;;;26.54;37.99;99592.30;105084;1271;61390;-74
2022/07/13 13:21:30;;;;;;;5.80;1.40;;;;;;;26.43;38.58;99585.39;105171;1271;74627;-77